createdAt,value
2022-12-08T00:00:08.901Z,89.23
2022-12-08T00:03:17.675Z,88.78
2022-12-08T00:06:43.971Z,89.18
2022-12-08T00:09:50.802Z,89.52
2022-12-08T00:12:53.427Z,89.58
2022-12-08T00:16:00.734Z,89.76
2022-12-08T00:19:03.543Z,89.32
2022-12-08T00:22:06.801Z,90.05
2022-12-08T00:25:10.909Z,89.55
2022-12-08T00:28:13.520Z,89.75
2022-12-08T00:31:16.263Z,89.42
2022-12-08T00:34:19.393Z,89.64
2022-12-08T00:37:22.091Z,90.19
2022-12-08T00:40:26.287Z,90.08
2022-12-08T00:43:28.820Z,89.50
2022-12-08T00:46:31.476Z,89.89
2022-12-08T00:49:34.172Z,89.65
2022-12-08T00:52:37.168Z,90.03
2022-12-08T00:55:41.128Z,90.03
2022-12-08T00:58:43.723Z,90.49
2022-12-08T01:01:47.969Z,90.21
2022-12-08T01:04:51.022Z,90.01
2022-12-08T01:07:53.662Z,89.95
2022-12-08T01:11:03.711Z,89.91
2022-12-08T01:14:06.370Z,90.15
2022-12-08T01:17:09.133Z,90.44
2022-12-08T01:20:12.268Z,89.66
2022-12-08T01:23:14.941Z,89.22
2022-12-08T01:26:19.704Z,88.69
2022-12-08T01:29:22.667Z,89.80
2022-12-08T01:32:25.326Z,89.50
2022-12-08T01:35:28.013Z,89.62
2022-12-08T01:38:31.029Z,89.86
2022-12-08T01:41:37.719Z,89.45
2022-12-08T01:45:02.555Z,89.83
2022-12-08T01:48:11.098Z,89.46
2022-12-08T01:51:14.367Z,90.68
2022-12-08T01:54:17.490Z,90.33
2022-12-08T01:57:27.296Z,89.94
2022-12-08T02:00:30.193Z,91.09
2022-12-08T02:03:38.313Z,89.65
2022-12-08T02:06:43.193Z,88.86
2022-12-08T02:09:46.579Z,89.18
2022-12-08T02:12:56.465Z,88.67
2022-12-08T02:16:08.251Z,88.78
2022-12-08T02:19:35.739Z,87.97
2022-12-08T02:22:46.093Z,88.62
2022-12-08T02:26:28.621Z,89.52
2022-12-08T02:30:09.480Z,90.53
2022-12-08T02:33:55.718Z,89.30
2022-12-08T02:37:08.319Z,89.62
2022-12-08T02:40:18.552Z,90.09
2022-12-08T02:43:27.970Z,90.20
2022-12-08T02:46:36.377Z,89.53
2022-12-08T02:49:40.645Z,89.07
2022-12-08T02:52:45.260Z,89.35
2022-12-08T02:56:00.672Z,89.10
2022-12-08T02:59:25.881Z,89.22
2022-12-08T03:02:53.125Z,88.44
2022-12-08T03:06:06.909Z,88.93
2022-12-08T03:09:18.076Z,88.87
2022-12-08T03:12:30.089Z,89.62
2022-12-08T03:15:35.241Z,89.60
2022-12-08T03:18:44.217Z,90.55
2022-12-08T03:21:51.380Z,89.45
2022-12-08T03:24:55.367Z,89.03
2022-12-08T03:27:59.591Z,88.05
2022-12-08T03:31:07.048Z,88.13
2022-12-08T03:34:12.639Z,89.02
2022-12-08T03:37:17.026Z,89.95
2022-12-08T03:40:20.876Z,89.06
2022-12-08T03:43:23.548Z,88.92
2022-12-08T03:49:35.108Z,88.73
2022-12-08T03:52:39.137Z,88.98
2022-12-08T03:56:00.273Z,88.96
2022-12-08T03:59:03.964Z,88.09
2022-12-08T04:02:06.665Z,87.72
2022-12-08T04:05:09.947Z,88.26
2022-12-08T04:08:14.039Z,88.38
2022-12-08T04:11:17.167Z,88.04
2022-12-08T04:14:19.894Z,87.60
2022-12-08T04:17:22.468Z,87.47
2022-12-08T04:20:25.026Z,88.29
2022-12-08T04:23:28.990Z,88.89
2022-12-08T04:26:31.613Z,88.50
2022-12-08T04:29:34.228Z,88.59
2022-12-08T04:32:36.978Z,88.79
2022-12-08T04:35:39.680Z,88.46
2022-12-08T04:38:43.928Z,88.04
2022-12-08T04:41:46.545Z,88.29
2022-12-08T04:44:49.236Z,88.42
2022-12-08T04:47:51.842Z,89.41
2022-12-08T04:50:54.495Z,89.04
2022-12-08T04:53:58.688Z,88.36
2022-12-08T04:57:01.418Z,88.15
2022-12-08T05:00:05.247Z,88.10
2022-12-08T05:03:08.300Z,87.65
2022-12-08T05:06:13.207Z,88.59
2022-12-08T05:09:17.489Z,87.23
2022-12-08T05:12:20.132Z,87.39
2022-12-08T05:15:22.795Z,86.46
2022-12-08T05:18:25.357Z,86.00
2022-12-08T05:21:28.016Z,86.47
2022-12-08T05:24:32.720Z,85.57
2022-12-08T05:27:35.722Z,85.29
2022-12-08T05:30:38.417Z,84.61
2022-12-08T05:33:41.445Z,85.12
2022-12-08T05:36:44.236Z,85.67
2022-12-08T05:39:48.331Z,86.43
2022-12-08T05:42:51.773Z,86.98
2022-12-08T05:45:54.433Z,85.66
2022-12-08T05:48:59.518Z,85.66
2022-12-08T05:52:02.363Z,85.52
2022-12-08T05:55:08.077Z,85.27
2022-12-08T05:58:13.502Z,85.36
2022-12-08T06:01:24.065Z,85.17
2022-12-08T06:04:26.833Z,85.00
2022-12-08T06:07:29.414Z,83.86
2022-12-08T06:10:33.657Z,84.29
2022-12-08T06:13:36.340Z,84.89
2022-12-08T06:16:39.219Z,84.66
2022-12-08T06:19:42.222Z,85.01
2022-12-08T06:22:44.857Z,85.38
2022-12-08T06:25:48.911Z,84.80
2022-12-08T06:29:10.155Z,84.46
2022-12-08T06:32:12.913Z,84.14
2022-12-08T06:35:15.830Z,85.15
2022-12-08T06:38:18.664Z,84.13
2022-12-08T06:41:23.405Z,82.78
2022-12-08T06:44:26.115Z,81.34
2022-12-08T06:47:28.806Z,81.13
2022-12-08T06:50:32.682Z,81.12
2022-12-08T06:53:35.477Z,81.17
2022-12-08T06:56:39.576Z,81.75
2022-12-08T06:59:42.319Z,81.85
2022-12-08T07:02:47.327Z,80.20
2022-12-08T07:05:50.123Z,80.40
2022-12-08T07:08:52.948Z,79.73
2022-12-08T07:11:58.555Z,79.68
2022-12-08T07:15:04.506Z,79.33
2022-12-08T07:18:07.202Z,79.09
2022-12-08T07:21:12.366Z,78.01
2022-12-08T07:24:15.309Z,77.50
2022-12-08T07:27:19.707Z,78.54
2022-12-08T07:30:22.967Z,78.84
2022-12-08T07:33:26.036Z,78.13
2022-12-08T07:36:29.308Z,78.02
2022-12-08T07:39:32.002Z,77.35
2022-12-08T07:42:36.835Z,77.13
2022-12-08T07:45:40.569Z,76.92
2022-12-08T07:48:43.851Z,77.26
2022-12-08T07:51:46.933Z,76.62
2022-12-08T07:54:50.160Z,77.83
2022-12-08T07:57:54.391Z,77.13
2022-12-08T08:00:57.313Z,77.32
2022-12-08T08:04:04.408Z,78.08
2022-12-08T08:07:08.355Z,74.84
2022-12-08T08:10:15.068Z,75.57
2022-12-08T08:13:18.989Z,75.28
2022-12-08T08:16:21.740Z,76.61
2022-12-08T08:19:24.606Z,76.67
2022-12-08T08:22:28.312Z,77.15
2022-12-08T08:25:31.083Z,77.37
2022-12-08T08:28:35.420Z,76.02
2022-12-08T08:31:56.786Z,77.73
2022-12-08T08:35:00.565Z,78.31
2022-12-08T08:38:03.604Z,77.03
2022-12-08T08:41:10.427Z,77.77
2022-12-08T08:44:15.073Z,78.07
2022-12-08T08:47:17.667Z,77.23
2022-12-08T08:50:20.277Z,78.89
2022-12-08T08:53:23.997Z,78.66
2022-12-08T08:56:26.790Z,77.87
2022-12-08T08:59:31.318Z,76.23
2022-12-08T09:02:36.853Z,75.63
2022-12-08T09:05:41.340Z,76.33
2022-12-08T09:08:45.937Z,75.79
2022-12-08T09:11:48.667Z,72.88
2022-12-08T09:14:52.655Z,72.34
2022-12-08T09:17:55.330Z,70.55
2022-12-08T09:21:04.920Z,70.35
2022-12-08T09:24:15.448Z,70.03
2022-12-08T09:27:19.788Z,68.96
2022-12-08T09:30:23.984Z,67.90
2022-12-08T09:33:28.798Z,65.98
2022-12-08T09:36:31.740Z,64.94
2022-12-08T09:39:37.655Z,65.04
2022-12-08T09:42:47.918Z,62.19
2022-12-08T09:45:53.211Z,60.95
2022-12-08T09:48:59.090Z,60.79
2022-12-08T09:52:03.027Z,57.93
2022-12-08T09:55:16.479Z,59.15
2022-12-08T09:58:25.620Z,57.01
2022-12-08T10:01:32.074Z,56.55
2022-12-08T10:04:37.730Z,56.70
2022-12-08T10:07:46.017Z,57.49
2022-12-08T10:10:58.634Z,56.95
2022-12-08T10:14:18.063Z,55.15
2022-12-08T10:17:47.459Z,56.40
2022-12-08T10:20:58.376Z,54.96
2022-12-08T10:24:05.931Z,53.90
2022-12-08T10:27:12.194Z,55.21
2022-12-08T10:30:18.235Z,56.60
2022-12-08T10:33:23.725Z,54.40
2022-12-08T10:36:47.151Z,55.18
2022-12-08T10:40:01.408Z,53.84
2022-12-08T10:43:05.992Z,53.36
2022-12-08T10:46:11.599Z,55.16
2022-12-08T10:49:27.238Z,56.57
2022-12-08T10:52:29.927Z,55.25
2022-12-08T10:55:41.382Z,55.69
2022-12-08T10:58:45.354Z,53.27
2022-12-08T11:01:50.031Z,53.55
2022-12-08T11:05:00.164Z,47.97
2022-12-08T11:08:05.889Z,46.81
2022-12-08T11:11:09.018Z,47.32
2022-12-08T11:14:18.712Z,45.25
2022-12-08T11:17:26.323Z,45.58
2022-12-08T11:20:38.771Z,43.92
2022-12-08T11:23:44.431Z,42.47
2022-12-08T11:26:51.765Z,44.57
2022-12-08T11:29:54.655Z,44.14
2022-12-08T11:33:02.618Z,47.22
2022-12-08T11:36:12.000Z,45.45
2022-12-08T11:39:15.118Z,44.14
2022-12-08T11:42:23.195Z,43.22
2022-12-08T11:45:30.699Z,43.68
2022-12-08T11:48:37.250Z,42.60
2022-12-08T11:51:48.695Z,40.24
2022-12-08T11:54:58.614Z,43.74
2022-12-08T11:58:11.338Z,48.53
2022-12-08T12:01:19.208Z,48.82
2022-12-08T12:04:29.864Z,51.99
2022-12-08T12:08:05.812Z,54.04
2022-12-08T12:11:36.733Z,56.22
2022-12-08T12:14:59.687Z,57.04
2022-12-08T12:18:08.854Z,59.52
2022-12-08T12:21:19.893Z,59.45
2022-12-08T12:24:35.560Z,60.18
2022-12-08T12:27:41.440Z,62.78
2022-12-08T12:30:56.830Z,62.96
2022-12-08T12:34:07.528Z,64.15
2022-12-08T12:37:13.432Z,63.04
2022-12-08T12:40:20.916Z,63.67
2022-12-08T12:43:30.490Z,65.93
2022-12-08T12:46:42.602Z,64.93
2022-12-08T12:50:36.869Z,65.86
2022-12-08T12:53:50.788Z,65.82
2022-12-08T12:56:56.556Z,68.07
2022-12-08T13:00:09.508Z,68.18
2022-12-08T13:03:14.898Z,68.28
2022-12-08T13:06:25.361Z,68.29
2022-12-08T13:09:33.747Z,68.30
2022-12-08T13:12:37.913Z,68.79
2022-12-08T13:15:47.374Z,70.80
2022-12-08T13:18:52.968Z,69.46
2022-12-08T13:21:55.902Z,69.64
2022-12-08T13:25:49.112Z,69.96
2022-12-08T13:29:23.573Z,68.75
2022-12-08T13:33:17.103Z,69.76
2022-12-08T13:36:29.932Z,70.08
2022-12-08T13:39:42.202Z,70.19
2022-12-08T13:42:53.497Z,70.54
2022-12-08T13:46:57.522Z,71.35
2022-12-08T13:59:45.765Z,71.62
2022-12-08T14:02:51.056Z,71.74
2022-12-08T14:09:21.362Z,70.80
2022-12-08T14:12:29.223Z,70.97
2022-12-08T14:15:38.311Z,71.74
2022-12-08T14:18:41.586Z,71.07
2022-12-08T14:21:53.528Z,71.32
2022-12-08T14:25:07.440Z,71.78
2022-12-08T14:28:11.500Z,71.70
2022-12-08T14:31:17.182Z,71.92
2022-12-08T14:34:20.338Z,71.24
2022-12-08T14:37:26.397Z,72.58
2022-12-08T14:40:33.897Z,72.35
2022-12-08T14:43:36.628Z,72.30
2022-12-08T14:47:05.817Z,72.08
2022-12-08T14:50:40.713Z,72.33
2022-12-08T14:53:47.869Z,71.29
2022-12-08T14:56:53.035Z,71.21
2022-12-08T14:59:55.890Z,72.90
2022-12-08T15:03:07.578Z,70.34
2022-12-08T15:06:10.996Z,69.85
2022-12-08T15:09:28.772Z,71.36
2022-12-08T15:12:33.352Z,71.11
2022-12-08T15:15:48.569Z,71.02
2022-12-08T15:19:03.178Z,71.34
2022-12-08T15:22:20.321Z,72.46
2022-12-08T15:25:24.415Z,72.48
2022-12-08T15:28:30.244Z,72.67
2022-12-08T15:31:33.252Z,72.28
2022-12-08T15:34:37.552Z,72.31
2022-12-08T15:37:41.509Z,72.65
2022-12-08T15:40:44.207Z,71.95
2022-12-08T15:44:05.478Z,73.22
2022-12-08T15:47:15.762Z,73.67
2022-12-08T15:50:21.505Z,74.20
2022-12-08T15:53:24.145Z,74.27
2022-12-08T15:56:28.513Z,73.92
2022-12-08T15:59:31.903Z,74.00
2022-12-08T16:03:05.046Z,73.77
2022-12-08T16:06:50.796Z,74.76
2022-12-08T16:09:28.557Z,74.91
2022-12-08T16:13:55.019Z,75.14
2022-12-08T16:16:19.670Z,75.30
2022-12-08T16:19:22.694Z,75.05
2022-12-08T16:26:20.272Z,74.82
2022-12-08T16:29:19.499Z,75.03
2022-12-08T16:32:23.270Z,74.81
2022-12-08T16:35:25.967Z,74.83
2022-12-08T16:38:29.943Z,74.19
2022-12-08T16:41:51.617Z,75.61
2022-12-08T16:44:54.287Z,77.43
2022-12-08T16:47:58.805Z,76.84
2022-12-08T16:51:04.505Z,75.95
2022-12-08T16:54:08.645Z,75.05
2022-12-08T16:57:12.350Z,75.29
2022-12-08T17:00:18.265Z,75.51
2022-12-08T17:03:20.995Z,76.57
2022-12-08T17:06:24.710Z,76.25
2022-12-08T17:09:31.315Z,76.49
2022-12-08T17:12:35.816Z,75.42
2022-12-08T17:15:40.059Z,75.64
2022-12-08T17:18:42.759Z,75.43
2022-12-08T17:21:45.475Z,74.88
2022-12-08T17:24:49.629Z,75.77
2022-12-08T17:27:52.376Z,75.94
2022-12-08T17:30:55.391Z,76.82
2022-12-08T17:33:58.543Z,76.88
2022-12-08T17:37:01.114Z,76.03
2022-12-08T17:40:08.243Z,75.14
2022-12-08T17:43:12.823Z,74.85
2022-12-08T17:46:17.680Z,75.33
2022-12-08T17:49:22.290Z,76.38
2022-12-08T17:52:25.020Z,77.88
2022-12-08T17:55:29.279Z,77.08
2022-12-08T17:58:32.227Z,76.56
2022-12-08T18:01:36.143Z,77.75
2022-12-08T18:04:39.280Z,78.89
2022-12-08T18:07:42.084Z,79.52
2022-12-08T18:10:46.902Z,78.85
2022-12-08T18:14:11.139Z,78.15
2022-12-08T18:17:13.996Z,78.05
2022-12-08T18:20:17.800Z,77.97
2022-12-08T18:23:20.571Z,77.60
2022-12-08T18:26:24.759Z,77.68
2022-12-08T18:29:27.514Z,77.57
2022-12-08T18:32:30.297Z,78.23
2022-12-08T18:35:34.139Z,77.17
2022-12-08T18:38:37.679Z,77.69
2022-12-08T18:41:41.708Z,78.66
2022-12-08T18:44:44.283Z,78.88
2022-12-08T18:47:46.859Z,79.52
2022-12-08T18:50:49.737Z,78.38
2022-12-08T18:53:53.332Z,78.31
2022-12-08T18:56:57.348Z,78.77
2022-12-08T18:59:59.994Z,79.17
2022-12-08T19:03:02.853Z,78.57
2022-12-08T19:06:06.830Z,78.77
2022-12-08T19:09:15.829Z,77.63
2022-12-08T19:12:19.925Z,78.05
2022-12-08T19:15:22.604Z,77.02
2022-12-08T19:18:25.447Z,77.18
2022-12-08T19:21:28.737Z,77.62
2022-12-08T19:24:34.711Z,77.78
2022-12-08T19:27:38.906Z,77.24
2022-12-08T19:30:45.389Z,77.55
2022-12-08T19:33:48.824Z,77.30
2022-12-08T19:36:51.875Z,78.40
2022-12-08T19:40:13.587Z,78.27
2022-12-08T19:43:38.095Z,77.75
2022-12-08T19:46:41.087Z,78.09
2022-12-08T19:49:44.026Z,78.60
2022-12-08T19:52:46.875Z,79.21
2022-12-08T19:55:49.807Z,79.26
2022-12-08T19:58:55.282Z,79.37
2022-12-08T20:01:58.500Z,78.91
2022-12-08T20:05:01.605Z,78.90
2022-12-08T20:08:04.953Z,79.30
2022-12-08T20:11:08.249Z,79.20
2022-12-08T20:14:12.642Z,78.91
2022-12-08T20:17:15.684Z,79.18
2022-12-08T20:20:19.214Z,79.98
2022-12-08T20:23:22.056Z,78.80
2022-12-08T20:26:25.041Z,77.66
2022-12-08T20:29:29.375Z,78.02
2022-12-08T20:32:32.237Z,79.96
2022-12-08T20:35:35.176Z,79.97
2022-12-08T20:38:38.028Z,79.75
2022-12-08T20:41:40.941Z,78.63
2022-12-08T20:44:46.079Z,78.66
2022-12-08T20:47:49.184Z,78.25
2022-12-08T20:50:52.309Z,79.20
2022-12-08T20:54:13.861Z,80.07
2022-12-08T20:57:16.588Z,79.81
2022-12-08T21:00:23.220Z,80.34
2022-12-08T21:03:26.815Z,80.84
2022-12-08T21:06:30.787Z,80.75
2022-12-08T21:09:33.876Z,81.21
2022-12-08T21:12:36.651Z,80.84
2022-12-08T21:15:45.074Z,81.31
2022-12-08T21:19:06.213Z,81.23
2022-12-08T21:22:09.211Z,80.92
2022-12-08T21:25:11.985Z,82.25
2022-12-08T21:28:15.357Z,82.25
2022-12-08T21:31:21.589Z,82.38
2022-12-08T21:34:24.598Z,82.54
2022-12-08T21:37:27.106Z,82.74
2022-12-08T21:40:29.634Z,82.16
2022-12-08T21:43:33.183Z,81.76
2022-12-08T21:46:38.667Z,82.06
2022-12-08T21:50:00.253Z,82.75
2022-12-08T21:53:03.487Z,82.72
2022-12-08T21:56:08.871Z,83.21
2022-12-08T21:59:11.535Z,83.44
2022-12-08T22:02:19.606Z,84.14
2022-12-08T22:05:25.383Z,83.56
2022-12-08T22:08:28.217Z,84.53
2022-12-08T22:11:31.206Z,82.93
2022-12-08T22:14:33.911Z,83.04
2022-12-08T22:17:39.369Z,83.41
2022-12-08T22:20:44.043Z,83.61
2022-12-08T22:23:47.134Z,83.41
2022-12-08T22:26:49.888Z,84.13
2022-12-08T22:29:52.927Z,84.56
2022-12-08T22:32:57.020Z,85.18
2022-12-08T22:36:06.520Z,85.26
2022-12-08T22:39:13.259Z,84.91
2022-12-08T22:42:15.842Z,85.17
2022-12-08T22:45:18.904Z,85.46
2022-12-08T22:48:22.754Z,86.15
2022-12-08T22:51:25.609Z,85.84
2022-12-08T22:54:28.162Z,85.45
2022-12-08T22:57:30.919Z,85.01
2022-12-08T23:00:33.502Z,85.88
2022-12-08T23:03:37.615Z,86.35
2022-12-08T23:06:40.221Z,86.41
2022-12-08T23:09:43.554Z,86.99
2022-12-08T23:12:46.266Z,87.38
2022-12-08T23:15:50.117Z,86.99
2022-12-08T23:18:54.075Z,87.33
2022-12-08T23:21:56.648Z,87.56
2022-12-08T23:24:59.155Z,88.24
2022-12-08T23:28:01.679Z,88.31
2022-12-08T23:31:07.638Z,88.17
2022-12-08T23:34:12.108Z,88.09
2022-12-08T23:37:15.877Z,88.42
2022-12-08T23:40:18.411Z,88.50
2022-12-08T23:43:21.115Z,89.17
2022-12-08T23:46:24.099Z,89.22
2022-12-08T23:49:28.247Z,89.29
2022-12-08T23:52:31.215Z,88.96
2022-12-08T23:55:33.857Z,89.59
2022-12-08T23:58:37.196Z,89.45
